Welcome to our new website - Welkom op onze vernieuwde website - Bienvenue sur notre nouveau site web - Willkommen auf unserer neuen Website

2017-02-10 Eigen fijnstof metingen toegevoegd
2017-02-14 Storing windsnelheid is opgelost.

Lokaal brand risico:
CBI


Regionaal brand risico: Meer informatie


Weerstation
Sluispark-LeuvenLeuven-Sluispark



Het weer levert geen direct gevaar op.    Er zijn geen waarschuwingen afgegeven.

Nabijgelegen vliegvelden - METAR rapporten

   
EBBR - Wilsele bij Leuven
Gewijzigd: 20-02-2018 10:20
Nevel, Gedeeltelijk bewolkt    Wind: varieert 1.9 km/h
Nevel, Gedeeltelijk bewolkt
Wind: Wind: varieert 1.9 km/h
Temperatuur: 2°C
Dauwpunt: -1°C
Vochtigheid: 81%
Barometer: 1018 hPa
Bewolking: Gedeeltelijk bewolkt
Zicht: 5 km
Bewolking: Gedeeltelijk bewolkt
EBBR 200920Z VRB01KT 4800 BR NSC 02/M01 Q1018 BECMG 6000 NSW
EBAW - Antwerp
Gewijzigd: 20-02-2018 10:20
Gedeeltelijk bewolkt    Wind: varieert 3.7 km/h
Gedeeltelijk bewolkt
Wind: Wind: varieert 3.7 km/h
Temperatuur: 3°C
Dauwpunt: -1°C
Vochtigheid: 75%
Barometer: 1019 hPa
Bewolking: Gedeeltelijk bewolkt
Zicht: 7 km
Bewolking: Gedeeltelijk bewolkt
EBAW 200920Z VRB02KT 7000 NSC 03/M01 Q1019 NOSIG
EBLG - Li├Ęge
Gewijzigd: 20-02-2018 10:20
Gedeeltelijk bewolkt    Wind: NW 5.6 km/h
Gedeeltelijk bewolkt
Wind: Wind: NW 5.6 km/h
Temperatuur: 1°C
Voelt als: -1°C
Dauwpunt: -1°C
Vochtigheid: 87%
Barometer: 1017 hPa
Bewolking: Gedeeltelijk bewolkt
Zicht: 6 km
Bewolking: Gedeeltelijk bewolkt
EBLG 200920Z 32003KT 6000 NSC 01/M01 Q1017 NOSIG
EBCV - Mons/Bergen
Gewijzigd: 20-02-2018 10:25
Nevel, Bewolking    Wind: varieert 3.7 km/h
Nevel, Bewolking
Wind: Wind: varieert 3.7 km/h
Temperatuur: 3°C
Dauwpunt: 1°C
Vochtigheid: 87%
Barometer: 1019 hPa
Bewolking: Bewolking
Zicht: 5 km
Bewolking: Bewolking 3048 m
EBCV 200925Z AUTO VRB02KT 4900 BR OVC100/// 03/01 Q1019 GRN
EHBK - Maastricht
Gewijzigd: 20-02-2018 10:25
Gedeeltelijk bewolkt    Wind: Noorden 5.6 km/h
Gedeeltelijk bewolkt
Wind: Wind: Noorden 5.6 km/h
Temperatuur: 2°C
Voelt als: 1°C
Dauwpunt: -1°C
Vochtigheid: 81%
Barometer: 1018 hPa
Bewolking: Gedeeltelijk bewolkt
Zicht: 9 km
Bewolking: Gedeeltelijk bewolkt
EHBK 200925Z AUTO 35003KT 300V030 9000 NSC 02/M01 Q1018 NOSIG
ELLX - Luxemburg
Gewijzigd: 20-02-2018 10:20
Licht bewolkt    Wind: OZO 11.1 km/h
Licht bewolkt
Wind: Wind: OZO 11.1 km/h
Temperatuur: -1°C
Voelt als: -5°C
Dauwpunt: -3°C
Vochtigheid: 86%
Barometer: 1016 hPa
Bewolking: Licht bewolkt
Zicht: 6 km
Bewolking: Licht bewolkt 335.3 m
ELLX 200920Z 11006KT 070V130 6000 FEW011 M01/M03 Q1016 NOSIG
EBOS - Oostende
Gewijzigd: 20-02-2018 10:20
Nevel, Gedeeltelijk bewolkt    Wind: varieert 3.7 km/h
Nevel, Gedeeltelijk bewolkt
Wind: Wind: varieert 3.7 km/h
Temperatuur: 4°C
Dauwpunt: 1°C
Vochtigheid: 81%
Barometer: 1019 hPa
Bewolking: Gedeeltelijk bewolkt
Zicht: 5 km
Bewolking: Gedeeltelijk bewolkt 1310.6 m
EBOS 200920Z VRB02KT 4800 BR SCT043 04/01 Q1019 NOSIG
  

Script ontwikkeld door  Saratoga-weather.org Aangepast voor de template door  Weerstation Leuven

U vindt ons ook hier:

UK Metoffice

WeatherCloud

European Weather Network

Weather Underground

Benelux Weather Network

AWEKAS

WeatherlinkIP

Het Weer Aktueel

Apparatuur in gebruik:

Weer-station
Davis VP2 weatherstation

Weer-programma
Meteobridge

Weer-computer
Asus WL -330N3G

Webleverancier
Robohost

Davis VP2 weatherstation

Meteobridge

Asus WL -330N3G

Robohost